Latest Weather Observations for Fortescue Dave Forrest

IDW60801

Issued at 10:05 am WST Wednesday 24 September 2014 (issued every 30 minutes, with the page automatically refreshed every 10 minutes)

About weather observations | Map of weather stations | Latest weather observations for WA | Other Formats
Station Details ID: 505056 Name: FORTESCUE DAVE FORREST Lat: -22.29 Lon: 119.43 Height: 474.6 m
Data from the previous 72 hours. | See also: Recent months for locations in Western Australia
Date/Time
WST
Temp
°C
App
Temp
°C
Dew
Point
Rel
Hum
%
Delta-T
°C
Wind Press
QNH
hPa
Press
MSL
hPa
Rain
since 9 am
mm
Dir
 
Spd
km/h
Gust
km/h
Spd
kts
Gust
kts
24/10:00am 21.7 14.4 -3.0 19 10.7 ESE 26 37 14 20 1023.3 1021.4 0.0
24/09:30am 20.7 13.0 -3.1 20 10.2 ESE 28 37 15 20 1023.6 1021.7 0.0
24/09:00am 19.9 11.5 -2.8 21 9.7 E 32 43 17 23 1023.8 1021.9 0.0
24/08:30am 18.5 11.2 -2.7 23 9.0 ESE 26 33 14 18 1023.8 1021.9 0.0
24/08:00am 17.2 10.3 -2.7 25 8.3 ESE 24 35 13 19 1023.8 1021.9 0.0
24/07:30am 15.7 10.5 -2.9 27 7.6 SE 15 22 8 12 1023.6 1021.7 0.0
24/07:00am 14.2 10.1 -2.9 30 6.9 ESE 9 13 5 7 1023.3 1021.4 0.0
24/06:30am 12.4 8.9 -3.1 34 6.1 SE 6 7 3 4 1022.6 1020.6 0.0
24/06:00am 11.4 6.9 -3.4 35 5.7 SE 11 15 6 8 1022.2 1020.3 0.0
24/05:30am 11.5 7.3 -3.5 35 5.8 SE 9 13 5 7 1022.1 1020.2 0.0
24/05:00am 12.2 7.7 -3.4 33 6.1 SE 11 15 6 8 1021.8 1019.9 0.0
24/04:30am 12.4 8.3 -3.4 33 6.2 SE 9 13 5 7 1021.6 1019.7 0.0
24/04:00am 12.9 8.4 -3.4 32 6.4 SE 11 15 6 8 1021.1 1019.2 0.0
24/03:30am 13.6 9.1 -3.3 31 6.7 SE 11 17 6 9 1021.0 1019.0 0.0
24/03:00am 13.9 9.0 -3.2 30 6.8 SE 13 17 7 9 1020.8 1018.8 0.0
24/02:30am 13.9 9.4 -3.1 30 6.8 SE 11 17 6 9 1020.9 1018.9 0.0
24/02:00am 14.5 10.0 -3.2 29 7.1 SE 11 15 6 8 1020.8 1018.8 0.0
24/01:30am 15.2 10.3 -3.0 28 7.4 SE 13 19 7 10 1020.8 1018.8 0.0
24/01:00am 15.9 10.7 -3.1 27 7.8 SE 15 24 8 13 1021.0 1019.0 0.0
24/12:30am 15.9 11.0 -3.4 26 7.9 SE 13 20 7 11 1021.1 1019.2 0.0
24/12:00am 16.8 11.9 -3.2 25 8.2 SE 13 19 7 10 1021.1 1019.2 0.0
 
Date/Time
WST
Temp
°C
App
Temp
°C
Dew
Point
Rel
Hum
%
Delta-T
°C
Wind Press
QNH
hPa
Press
MSL
hPa
Rain
since 9 am
mm
Dir
 
Spd
km/h
Gust
km/h
Spd
kts
Gust
kts
23/11:30pm 17.3 12.1 -3.1 24 8.5 SE 15 22 8 12 1021.2 1019.3 0.0
23/11:00pm 18.1 13.2 -3.6 22 9.0 SE 13 22 7 12 1021.2 1019.3 0.0
23/10:30pm 19.5 13.8 -4.0 20 9.8 SE 17 26 9 14 1021.2 1019.3 0.0
23/10:00pm 19.4 14.0 -4.3 20 9.8 ESE 15 20 8 11 1021.2 1019.3 0.0
23/09:30pm 19.4 14.7 -4.6 19 9.9 ESE 11 15 6 8 1021.2 1019.3 0.0
23/09:00pm 20.2 15.2 -4.5 18 10.2 ESE 13 19 7 10 1021.1 1019.2 0.0
23/08:30pm 19.7 15.4 -4.4 19 10.0 ESE 9 11 5 6 1021.0 1019.0 0.0
23/08:00pm 20.6 16.4 -4.1 18 10.3 ESE 9 13 5 7 1020.7 1018.7 0.0
23/07:30pm 21.1 16.5 -3.9 18 10.6 ESE 11 15 6 8 1020.3 1018.3 0.0
23/07:00pm 21.5 17.3 -4.0 18 10.8 SE 9 11 5 6 1019.9 1018.0 0.0
23/06:30pm 22.8 18.2 -4.3 16 11.6 SE 11 17 6 9 1019.4 1017.5 0.0
23/06:00pm 23.9 18.5 -4.1 15 12.1 SE 15 22 8 12 1019.0 1017.0 0.0
23/05:30pm 25.0 19.3 -4.0 14 12.7 SE 17 24 9 13 1018.7 1016.7 0.0
23/05:00pm 25.6 19.3 -4.0 14 13.0 ESE 20 30 11 16 1018.5 1016.5 0.0
23/04:30pm 26.4 20.7 -3.7 13 13.4 SE 17 24 9 13 1018.1 1016.1 0.0
23/04:00pm 26.5 20.4 -3.7 13 13.4 SE 19 30 10 16 1018.1 1016.1 0.0
23/03:30pm 26.9 20.7 -3.1 14 13.6 SSE 20 32 11 17 1018.0 1016.0 0.0
23/03:00pm 26.5 20.4 -2.5 14 13.2 SSE 20 32 11 17 1018.2 1016.2 0.0
23/02:30pm 25.9 20.0 -2.5 15 12.9 SE 19 33 10 18 1018.5 1016.5 0.0
23/02:00pm 25.5 19.4 -2.0 16 12.5 SSE 20 35 11 19 1018.7 1016.7 0.0
23/01:30pm 25.6 19.2 -1.7 16 12.5 SE 22 30 12 16 1019.1 1017.1 0.0
23/01:00pm 24.7 17.9 -2.1 17 12.1 SE 24 35 13 19 1019.5 1017.6 0.0
23/12:30pm 24.0 17.7 -1.3 18 11.6 SE 22 37 12 20 1019.8 1017.9 0.0
23/12:00pm 23.0 15.1 -1.6 19 11.0 ESE 30 44 16 24 1020.4 1018.4 0.0
23/11:30am 22.4 15.0 -0.5 21 10.5 SE 28 43 15 23 1020.7 1018.7 0.0
23/11:00am 22.4 16.2 0.0 22 10.3 SE 22 35 12 19 1021.2 1019.3 0.0
23/10:30am 20.9 13.7 0.7 26 9.4 SE 28 41 15 22 1021.4 1019.5 0.0
23/10:00am 20.0 12.3 -0.1 26 9.1 SSE 30 44 16 24 1021.5 1019.6 0.0
23/09:30am 18.8 10.6 0.1 28 8.4 SE 33 52 18 28 1021.7 1019.8 0.0
23/09:20am 18.6 10.5 -0.1 28 8.4 SE 32 50 17 27 1021.6 1019.7 0.0
23/09:00am 18.0 9.4 0.5 30 7.9 SE 35 52 19 28 1021.9 1020.0 0.0
23/08:33am 16.8 8.7 0.7 33 7.2 SE 33 52 18 28 1021.7 1019.8 0.0
23/08:30am 16.6 8.1 0.7 34 7.1 SE 35 52 19 28 1021.6 1019.7 0.0
23/08:10am 16.5 8.4 0.8 34 7.0 SE 33 52 18 28 1021.5 1019.6 0.0
23/08:00am 16.3 8.8 1.0 35 6.8 SE 30 46 16 25 1021.5 1019.6 0.0
23/07:33am 15.1 7.1 0.6 37 6.4 SE 32 50 17 27 1021.3 1019.4 0.0
23/07:30am 14.8 6.8 0.6 38 6.2 SE 32 48 17 26 1021.3 1019.4 0.0
23/07:21am 14.5 7.2 0.2 37 6.2 SSE 28 46 15 25 1021.1 1019.2 0.0
23/07:00am 14.1 7.2 -0.1 37 6.1 SSE 26 44 14 24 1020.9 1018.9 0.0
23/06:30am 13.3 6.7 -0.4 39 5.8 SSE 24 35 13 19 1020.7 1018.7 0.0
23/06:00am 12.7 6.1 -0.7 39 5.6 SSE 24 43 13 23 1020.2 1018.2 0.0
23/05:30am 12.9 5.4 -1.3 37 5.9 SSE 28 41 15 22 1019.8 1017.9 0.0
23/05:00am 13.3 6.6 -1.4 36 6.1 SSE 24 37 13 20 1019.7 1017.8 0.0
23/04:30am 13.8 6.7 -1.6 34 6.4 SSE 26 43 14 23 1019.5 1017.6 0.0
23/04:00am 14.3 6.8 -1.4 34 6.6 SSE 28 41 15 22 1019.1 1017.1 0.0
23/03:48am 14.5 7.0 -1.4 33 6.7 SSE 28 46 15 25 1018.9 1016.9 0.0
23/03:30am 14.8 7.7 -1.6 32 6.9 SSE 26 46 14 25 1018.8 1016.8 0.0
23/03:24am 14.7 7.2 -1.7 32 6.8 SSE 28 46 15 25 1018.9 1016.9 0.0
23/03:00am 15.1 8.3 -1.8 31 7.0 SSE 24 43 13 23 1018.7 1016.7 0.0
23/02:30am 15.3 8.9 -2.0 30 7.2 SSE 22 33 12 18 1018.7 1016.7 0.0
23/02:00am 16.1 8.2 -1.8 29 7.5 S 30 41 16 22 1018.7 1016.7 0.0
23/01:30am 16.5 9.8 -1.1 30 7.6 S 24 39 13 21 1018.9 1016.9 0.0
23/01:00am 16.9 9.5 -0.9 29 7.7 S 28 37 15 20 1019.0 1017.0 0.0
23/12:30am 17.2 11.4 -0.4 30 7.7 S 20 33 11 18 1019.3 1017.4 0.0
23/12:00am 17.8 11.6 -0.2 29 8.0 S 22 32 12 17 1019.2 1017.3 0.0
 
Date/Time
WST
Temp
°C
App
Temp
°C
Dew
Point
Rel
Hum
%
Delta-T
°C
Wind Press
QNH
hPa
Press
MSL
hPa
Rain
since 9 am
mm
Dir
 
Spd
km/h
Gust
km/h
Spd
kts
Gust
kts
22/11:30pm 18.0 12.2 0.0 29 8.0 S 20 32 11 17 1019.5 1017.6 0.0
22/11:00pm 18.4 11.9 0.1 29 8.2 S 24 35 13 19 1019.6 1017.7 0.0
22/10:30pm 18.8 12.3 0.1 28 8.4 S 24 35 13 19 1019.6 1017.7 0.0
22/10:00pm 19.3 14.1 0.1 27 8.6 S 17 32 9 17 1019.7 1017.8 0.0
22/09:30pm 19.7 14.5 -0.1 26 8.9 S 17 26 9 14 1019.5 1017.6 0.0
22/09:00pm 20.2 14.9 -0.5 25 9.3 S 17 26 9 14 1019.4 1017.5 0.0
22/08:30pm 20.8 16.3 -0.1 24 9.5 S 13 22 7 12 1019.2 1017.3 0.0
22/08:00pm 21.6 16.0 -0.1 23 9.9 S 19 28 10 15 1019.0 1017.0 0.0
22/07:30pm 22.1 16.4 -0.4 22 10.3 S 19 30 10 16 1018.6 1016.6 0.0
22/07:00pm 22.4 16.5 -0.6 21 10.5 S 20 32 11 17 1018.1 1016.1 0.0
22/06:30pm 23.1 17.2 -0.5 21 10.9 S 20 32 11 17 1017.5 1015.6 0.0
22/06:00pm 24.0 17.7 -0.7 19 11.4 S 22 33 12 18 1017.2 1015.2 0.0
22/05:30pm 25.8 19.7 -2.3 15 12.8 S 20 30 11 16 1016.6 1014.6 0.0
22/05:00pm 27.0 20.0 -3.5 13 13.7 SSW 24 37 13 20 1016.0 1014.0 0.0
22/04:30pm 28.1 21.7 -4.5 11 14.5 SSW 20 35 11 19 1015.8 1013.8 0.0
22/04:00pm 28.7 22.1 -3.6 12 14.7 SSW 22 35 12 19 1015.7 1013.7 0.0
22/03:30pm 28.5 22.5 -1.5 14 14.1 S 20 37 11 20 1015.5 1013.6 0.0
22/03:00pm 28.7 22.8 -0.9 14 14.1 S 20 35 11 19 1015.7 1013.7 0.0
22/02:30pm 27.9 22.0 -0.9 15 13.6 S 20 33 11 18 1015.7 1013.7 0.0
22/02:00pm 27.2 21.4 -0.4 16 13.1 SSW 20 30 11 16 1015.8 1013.8 0.0
22/01:30pm 27.4 21.7 -0.8 16 13.3 S 19 28 10 15 1016.2 1014.2 0.0
22/01:00pm 25.7 19.9 -1.7 16 12.6 S 19 33 10 18 1016.6 1014.6 0.0
22/12:30pm 24.9 19.0 -0.9 18 12.0 S 20 39 11 21 1017.0 1015.0 0.0
22/12:00pm 24.4 18.8 0.2 20 11.4 S 19 30 10 16 1017.6 1015.7 0.0
22/11:30am 23.7 17.8 1.6 23 10.6 SSW 22 33 12 18 1018.1 1016.1 0.0
22/11:00am 23.2 17.2 0.9 23 10.5 S 22 37 12 20 1018.7 1016.7 0.0
22/10:30am 23.3 15.8 1.0 23 10.6 S 30 39 16 21 1018.8 1016.8 0.0
22/10:00am 22.1 15.6 0.0 23 10.2 SSW 24 35 13 19 1018.9 1016.9 0.0
22/09:30am 21.6 15.8 2.4 28 9.2 S 22 35 12 19 1019.1 1017.1 0.0
22/09:00am 20.0 14.6 4.6 36 7.6 SSW 22 32 12 17 1019.2 1017.3 0.0
22/08:30am 19.2 12.7 4.8 38 7.1 SSW 28 39 15 21 1019.4 1017.5 0.0
22/08:00am 18.8 12.5 5.9 43 6.5 SSW 28 43 15 23 1019.1 1017.1 0.0
22/07:30am 18.0 12.5 7.5 50 5.4 SSW 26 39 14 21 1019.0 1017.0 0.0
22/07:00am 17.5 12.6 8.4 55 4.8 SSW 24 35 13 19 1018.7 1016.7 0.0
22/06:30am 17.0 14.4 10.8 67 3.4 S 15 22 8 12 1018.5 1016.5 0.0
22/06:00am 17.3 13.0 10.9 66 3.5 SSW 24 39 13 21 1018.0 1016.0 0.0
22/05:30am 18.4 14.0 11.7 65 3.8 SSW 26 41 14 22 1017.6 1015.7 0.0
22/05:00am 19.8 16.5 12.7 63 4.1 SSW 22 33 12 18 1016.9 1014.9 0.0
22/04:30am 20.7 16.2 12.6 59 4.7 SW 28 41 15 22 1016.1 1014.1 0.0
22/04:00am 21.2 18.0 13.1 60 4.7 SW 22 30 12 16 1015.5 1013.6 0.0
22/03:30am 21.8 17.7 12.7 56 5.3 SW 26 39 14 21 1015.3 1013.3 0.0
22/03:00am 22.0 17.9 11.3 50 6.1 SW 24 35 13 19 1015.3 1013.3 0.0
22/02:30am 23.3 18.9 8.8 39 7.9 WSW 22 32 12 17 1015.2 1013.2 0.0
22/02:00am 23.8 19.6 7.4 35 8.8 WSW 19 26 10 14 1015.1 1013.1 0.0
22/01:30am 24.4 20.0 6.5 31 9.5 WSW 19 28 10 15 1015.2 1013.2 0.0
22/01:00am 24.9 20.6 5.3 28 10.2 W 17 22 9 12 1015.3 1013.3 0.0
22/12:30am 25.4 21.0 4.9 26 10.6 W 17 24 9 13 1015.3 1013.3 0.0
22/12:00am 25.2 21.1 4.2 25 10.7 W 15 17 8 9 1015.7 1013.7 0.0
 
Date/Time
WST
Temp
°C
App
Temp
°C
Dew
Point
Rel
Hum
%
Delta-T
°C
Wind Press
QNH
hPa
Press
MSL
hPa
Rain
since 9 am
mm
Dir
 
Spd
km/h
Gust
km/h
Spd
kts
Gust
kts
21/11:30pm 25.9 21.3 3.9 24 11.2 W 17 20 9 11 1015.9 1013.9 0.0
21/11:00pm 26.6 22.4 3.6 22 11.7 W 15 20 8 11 1016.0 1014.0 0.0
21/10:30pm 27.2 22.9 3.3 21 12.1 W 15 22 8 12 1016.0 1014.0 0.0
21/10:00pm 28.1 23.4 3.1 20 12.7 W 17 22 9 12 1016.2 1014.2 0.0
21/09:30pm 28.6 23.5 3.3 19 13.0 W 19 26 10 14 1016.4 1014.4 0.0
21/09:00pm 29.3 24.1 3.7 19 13.2 WNW 20 28 11 15 1016.3 1014.3 0.0
21/08:30pm 29.7 24.7 3.4 18 13.6 WNW 19 33 10 18 1016.2 1014.2 0.0
21/08:00pm 29.7 25.2 2.1 17 13.9 WNW 15 17 8 9 1015.8 1013.8 0.0
21/07:30pm 30.4 25.8 1.7 16 14.5 WNW 15 20 8 11 1015.4 1013.5 0.0
21/07:00pm 31.2 26.2 1.4 15 15.0 WNW 17 22 9 12 1015.0 1013.0 0.0
21/06:30pm 32.0 26.6 1.2 14 15.6 WNW 19 28 10 15 1014.6 1012.6 0.0
21/06:00pm 32.9 26.9 0.9 13 16.2 WNW 22 32 12 17 1014.2 1012.2 0.0
21/05:30pm 33.8 27.4 0.8 12 16.7 NW 24 33 13 18 1014.1 1012.1 0.0
21/05:00pm 34.3 27.5 0.7 12 17.1 WNW 26 35 14 19 1013.9 1011.9 0.0
21/04:30pm 35.4 28.2 0.9 11 17.7 NNW 28 52 15 28 1013.7 1011.7 0.0
21/04:26pm 35.1 27.9 0.7 11 17.6 NNW 28 52 15 28 1013.5 1011.4 0.0
21/04:00pm 34.9 28.1 0.7 11 17.4 NNW 26 43 14 23 1013.6 1011.5 0.0
21/03:30pm 36.1 28.8 0.1 10 18.3 NNW 28 39 15 21 1013.9 1011.9 0.0
21/03:00pm 36.3 29.1 0.4 10 18.4 NNW 28 46 15 25 1014.0 1012.0 0.0
21/02:53pm 35.9 28.7 0.6 11 18.1 NW 28 46 15 25 1014.0 1012.0 0.0
21/02:30pm 35.6 28.4 0.7 11 17.9 NNW 28 39 15 21 1014.3 1012.3 0.0
21/02:00pm 35.7 28.8 0.3 10 18.0 NNW 26 43 14 23 1014.5 1012.5 0.0
21/01:30pm 35.0 29.9 0.6 11 17.5 NNE 17 30 9 16 1015.0 1013.0 0.0
21/01:00pm 35.8 30.2 1.0 11 17.9 NW 20 26 11 14 1015.4 1013.5 0.0
21/12:30pm 34.6 27.0 0.5 11 17.3 NNW 30 43 16 23 1016.2 1014.2 0.0
21/12:00pm 34.7 30.8 0.9 12 17.2 NW 11 37 6 20 1016.7 1014.7 0.0
21/11:30am 34.5 30.6 1.3 12 17.0 WSW 11 19 6 10 1017.2 1015.2 0.0
21/11:00am 33.0 29.0 2.6 14 15.8 W 13 24 7 13 1017.8 1015.9 0.0
21/10:30am 32.3 28.7 3.1 15 15.2 WSW 11 20 6 11 1018.5 1016.5 0.0

Other Formats:

Comma delimited format used in spreadsheet applications
http://www.bom.gov.au/fwo/IDW60801/IDW60801.99736.axf

JavaScript Object Notation format (JSON) in row-major order
http://www.bom.gov.au/fwo/IDW60801/IDW60801.99736.json